createdAt,value
2023-05-24T04:00:29.857Z,99.99
2023-05-24T04:05:29.952Z,99.99
2023-05-24T04:10:29.726Z,99.99
2023-05-24T04:15:29.673Z,99.99
2023-05-24T04:20:29.743Z,99.99
2023-05-24T04:25:36.604Z,96.27
2023-05-24T04:30:29.546Z,92.55
2023-05-24T04:35:29.482Z,89.15
2023-05-24T04:40:29.426Z,86.16
2023-05-24T04:45:29.371Z,83.58
2023-05-24T04:50:29.307Z,80.90
2023-05-24T04:55:29.250Z,79.66
2023-05-24T05:00:29.227Z,78.11
2023-05-24T05:05:29.141Z,76.87
2023-05-24T05:10:29.095Z,76.25
2023-05-24T05:15:29.030Z,76.25
2023-05-24T05:20:29.075Z,74.08
2023-05-24T05:25:28.944Z,72.74
2023-05-24T05:30:28.862Z,71.51
2023-05-24T05:35:28.813Z,72.23
2023-05-24T05:40:28.775Z,81.82
2023-05-24T05:45:28.683Z,83.17
2023-05-24T05:50:28.647Z,78.52
2023-05-24T05:55:28.589Z,89.67
2023-05-24T06:00:28.571Z,88.43
2023-05-24T06:05:28.510Z,89.36
2023-05-24T06:10:28.419Z,85.85
2023-05-24T06:15:28.360Z,89.05
2023-05-24T06:20:28.919Z,85.75
2023-05-24T06:25:28.240Z,84.51
2023-05-24T06:30:28.494Z,83.48
2023-05-24T06:35:28.184Z,87.92
2023-05-24T06:40:28.141Z,92.55
2023-05-24T06:45:28.068Z,95.96
2023-05-24T06:50:27.979Z,87.92
2023-05-24T06:55:27.961Z,93.69
2023-05-24T07:00:27.940Z,93.90
2023-05-24T07:05:27.816Z,88.84
2023-05-24T07:10:27.876Z,92.76
2023-05-24T07:15:27.713Z,85.64
2023-05-24T07:20:27.844Z,91.42
2023-05-24T07:25:27.595Z,95.03
2023-05-24T07:30:32.244Z,94.62
2023-05-24T07:35:27.501Z,94.62
2023-05-24T07:40:27.474Z,94.72
2023-05-24T07:45:27.396Z,90.59
2023-05-24T07:50:27.310Z,91.42
2023-05-24T07:55:27.283Z,89.67
2023-05-24T08:00:27.543Z,89.77
2023-05-24T08:05:27.167Z,93.59
2023-05-24T08:10:27.120Z,95.86
2023-05-24T08:15:27.044Z,97.09
2023-05-24T08:20:27.105Z,98.44
2023-05-24T08:25:26.929Z,97.20
2023-05-24T08:30:26.908Z,96.48
2023-05-24T08:35:26.853Z,94.42
2023-05-24T08:40:27.027Z,94.21
2023-05-24T08:45:26.727Z,96.69
2023-05-24T08:50:26.684Z,95.34
2023-05-24T08:55:26.630Z,95.45
2023-05-24T09:00:26.589Z,97.41
2023-05-24T09:05:26.522Z,98.44
2023-05-24T09:10:26.462Z,98.13
2023-05-24T09:15:26.422Z,96.37
2023-05-24T09:20:26.462Z,95.65
2023-05-24T09:25:26.298Z,96.37
2023-05-24T09:30:26.218Z,97.72
2023-05-24T09:35:26.176Z,97.82
2023-05-24T09:40:26.153Z,99.68
2023-05-24T09:45:26.062Z,99.37
2023-05-24T09:50:26.009Z,99.26
2023-05-24T09:55:25.998Z,98.13
2023-05-24T10:00:26.015Z,96.06
2023-05-24T10:05:25.834Z,95.96
2023-05-24T10:10:25.795Z,95.76
2023-05-24T10:15:25.736Z,96.79
2023-05-24T10:20:25.808Z,96.37
2023-05-24T10:25:32.674Z,95.76
2023-05-24T10:30:25.591Z,94.10
2023-05-24T10:35:25.522Z,95.76
2023-05-24T10:40:25.571Z,94.10
2023-05-24T10:45:25.426Z,94.00
2023-05-24T10:50:25.385Z,94.93
2023-05-24T10:55:25.310Z,95.96
2023-05-24T11:00:34.587Z,97.09
2023-05-24T11:05:26.287Z,96.06
2023-05-24T11:10:25.168Z,98.13
2023-05-24T11:15:25.094Z,99.57
2023-05-24T11:20:25.096Z,99.99
2023-05-24T11:25:24.971Z,99.99
2023-05-24T11:30:24.920Z,99.99
2023-05-24T11:35:24.885Z,99.99
2023-05-24T11:40:24.908Z,99.99
2023-05-24T11:45:24.777Z,99.99
2023-05-24T11:50:26.655Z,99.99
2023-05-24T11:55:24.672Z,99.99
2023-05-24T12:00:24.663Z,99.99
2023-05-24T12:05:24.520Z,99.99
2023-05-24T12:10:24.480Z,99.37
2023-05-24T12:15:24.481Z,97.72
2023-05-24T12:20:24.445Z,94.93
2023-05-24T12:25:24.323Z,94.21
2023-05-24T12:30:24.290Z,95.14
2023-05-24T12:35:24.235Z,93.38
2023-05-24T12:40:24.200Z,95.03
2023-05-24T12:45:24.098Z,96.27
2023-05-24T12:50:24.057Z,97.51
2023-05-24T12:55:23.993Z,99.37
2023-05-24T13:00:23.989Z,99.16
2023-05-24T13:05:23.961Z,98.33
2023-05-24T13:10:23.858Z,96.27
2023-05-24T13:15:23.786Z,96.69
2023-05-24T13:20:23.816Z,96.37
2023-05-24T13:25:23.674Z,97.51
2023-05-24T13:30:23.629Z,99.06
2023-05-24T13:35:23.603Z,99.88
2023-05-24T13:40:23.550Z,99.99
2023-05-24T13:45:23.460Z,99.37
2023-05-24T13:50:23.418Z,99.16
2023-05-24T13:55:23.353Z,99.47
2023-05-24T14:00:23.325Z,98.85
2023-05-24T14:05:50.886Z,97.72
2023-05-24T14:10:24.189Z,97.61
2023-05-24T14:15:23.121Z,98.23
2023-05-24T14:20:23.187Z,99.57
2023-05-24T14:25:23.024Z,99.88
2023-05-24T14:30:22.965Z,99.99
2023-05-24T14:35:22.920Z,99.26
2023-05-24T14:40:22.980Z,98.85
2023-05-24T14:45:22.822Z,98.96
2023-05-24T14:50:22.757Z,97.82
2023-05-24T14:55:22.710Z,97.72
2023-05-24T15:00:24.522Z,98.96
2023-05-24T15:05:22.576Z,99.99
2023-05-24T15:10:22.518Z,98.75
2023-05-24T15:15:22.507Z,99.99
2023-05-24T15:20:22.435Z,99.99
2023-05-24T15:25:22.470Z,99.68
2023-05-24T15:30:22.312Z,98.96
2023-05-24T15:35:22.254Z,98.02
2023-05-24T15:40:24.079Z,99.68
2023-05-24T15:45:22.174Z,99.99
2023-05-24T15:50:31.776Z,99.99
2023-05-24T15:55:23.027Z,99.99
2023-05-24T16:00:22.018Z,99.99
2023-05-24T16:05:21.943Z,99.99
2023-05-24T16:10:21.869Z,99.99
2023-05-24T16:15:21.820Z,99.99
2023-05-24T16:20:21.834Z,99.99
2023-05-24T16:25:28.738Z,99.99
2023-05-24T16:30:21.648Z,99.99
2023-05-24T16:35:21.608Z,99.99
2023-05-24T16:40:21.572Z,99.99
2023-05-24T16:45:21.489Z,99.99
2023-05-24T16:50:21.429Z,99.99
2023-05-24T16:55:21.386Z,99.99
2023-05-24T17:00:21.339Z,99.99
2023-05-24T17:05:21.277Z,99.99
2023-05-24T17:10:21.305Z,99.99
2023-05-24T17:15:21.174Z,99.99
2023-05-24T17:20:21.234Z,99.99
2023-05-24T17:25:21.062Z,99.99
2023-05-24T17:30:20.985Z,99.99
2023-05-24T17:35:20.944Z,99.99
2023-05-24T17:40:20.921Z,99.99
2023-05-24T17:45:20.815Z,99.99
2023-05-24T17:50:20.767Z,99.99
2023-05-24T17:55:20.746Z,99.99
2023-05-24T18:00:20.759Z,99.99
2023-05-24T18:05:20.636Z,99.99
2023-05-24T18:10:20.561Z,99.99
2023-05-24T18:15:20.495Z,99.99
2023-05-24T18:20:20.534Z,99.99
2023-05-24T18:25:20.386Z,99.99
2023-05-24T18:30:20.329Z,99.99
2023-05-24T18:35:20.280Z,99.99
2023-05-24T18:40:20.251Z,99.99
2023-05-24T18:45:20.189Z,99.99
2023-05-24T18:50:22.113Z,99.99
2023-05-24T18:55:20.061Z,99.99
2023-05-24T19:00:20.032Z,99.99
2023-05-24T19:05:19.967Z,99.99
2023-05-24T19:10:19.893Z,99.99
2023-05-24T19:15:19.891Z,99.99
2023-05-24T19:20:19.913Z,99.99
2023-05-24T19:25:19.718Z,99.99
2023-05-24T19:30:19.683Z,99.99
2023-05-24T19:35:19.625Z,99.99
2023-05-24T19:40:19.591Z,99.99
2023-05-24T19:45:19.532Z,99.99
2023-05-24T19:50:19.452Z,99.99
2023-05-24T19:55:19.397Z,99.99
2023-05-24T20:00:19.356Z,99.99
2023-05-24T20:05:19.283Z,99.99
2023-05-24T20:10:19.228Z,99.99
2023-05-24T20:15:19.185Z,99.99
2023-05-24T20:20:19.200Z,99.99
2023-05-24T20:25:19.070Z,99.99
2023-05-24T20:30:19.015Z,99.99
2023-05-24T20:35:18.964Z,99.99
2023-05-24T20:40:18.947Z,99.99
2023-05-24T20:45:18.848Z,99.99
2023-05-24T20:50:18.797Z,99.99
2023-05-24T20:55:18.727Z,99.99
2023-05-24T21:00:18.698Z,99.99
2023-05-24T21:05:18.637Z,99.99
2023-05-24T21:10:18.614Z,99.99
2023-05-24T21:15:18.526Z,99.99
2023-05-24T21:20:18.539Z,99.99
2023-05-24T21:25:18.403Z,99.99
2023-05-24T21:30:18.377Z,99.99
2023-05-24T21:35:18.296Z,99.99
2023-05-24T21:40:18.267Z,99.99
2023-05-24T21:45:18.203Z,99.99
2023-05-24T21:50:18.137Z,99.99
2023-05-24T21:55:18.082Z,99.99
2023-05-24T22:00:18.059Z,99.99
2023-05-24T22:05:17.975Z,99.99
2023-05-24T22:10:17.927Z,99.99
2023-05-24T22:15:17.866Z,99.99
2023-05-24T22:20:17.904Z,99.99
2023-05-24T22:25:24.791Z,99.99
2023-05-24T22:30:17.706Z,99.99
2023-05-24T22:35:17.666Z,99.99
2023-05-24T22:40:17.626Z,99.99
2023-05-24T22:45:17.550Z,99.99
2023-05-24T22:50:17.494Z,99.99
2023-05-24T22:55:17.442Z,99.99
2023-05-24T23:00:17.420Z,99.99
2023-05-24T23:05:17.556Z,99.99
2023-05-24T23:10:17.296Z,99.99
2023-05-24T23:15:17.250Z,99.99
2023-05-24T23:20:17.243Z,99.99
2023-05-24T23:25:17.155Z,99.99
